Time;durP1;ratioP1;P1;durP2;ratioP2;P2;SDS_P1;SDS_P2;PMS_P1;PMS_P2;Temp;Humidity;BMP_temperature;BMP_pressure;BME280_temperature;BME280_humidity;BME280_pressure;Samples;Min_cycle;Max_cycle;Signal;HPM_P1;HPM_P2
2023/07/27 00:01:48;;;;;;;10.77;3.03;;;;;;;14.87;100.00;100289.22;4920462;28;20286;-76
2023/07/27 00:04:16;;;;;;;8.63;2.60;;;;;;;14.89;100.00;100293.63;4911888;28;20246;-76
2023/07/27 00:06:43;;;;;;;11.25;3.28;;;;;;;14.83;100.00;100295.47;4912228;28;20333;-76
2023/07/27 00:09:10;;;;;;;17.70;4.78;;;;;;;14.83;100.00;100296.34;4915955;28;20234;-76
2023/07/27 00:11:37;;;;;;;9.45;2.67;;;;;;;14.82;100.00;100307.00;4917481;28;20222;-75
2023/07/27 00:14:04;;;;;;;25.17;6.60;;;;;;;14.78;100.00;100306.16;4915844;28;20274;-76
2023/07/27 00:16:30;;;;;;;8.98;2.58;;;;;;;14.77;100.00;100308.84;4933993;28;20222;-76
2023/07/27 00:18:59;;;;;;;14.05;4.22;;;;;;;14.76;100.00;100307.06;4911042;28;20231;-76
2023/07/27 00:21:25;;;;;;;10.95;3.33;;;;;;;14.83;100.00;100314.09;4920871;28;20238;-76
2023/07/27 00:23:52;;;;;;;7.78;2.35;;;;;;;14.79;100.00;100305.25;4916856;28;20245;-76
2023/07/27 00:26:19;;;;;;;7.05;2.30;;;;;;;14.79;100.00;100310.59;4933268;28;20322;-77
2023/07/27 00:28:46;;;;;;;8.95;2.60;;;;;;;14.78;100.00;100307.94;4921122;28;20238;-76
2023/07/27 00:31:13;;;;;;;7.45;2.38;;;;;;;14.73;100.00;100305.31;4913521;28;20237;-77
2023/07/27 00:33:40;;;;;;;13.40;3.67;;;;;;;14.73;100.00;100310.66;4919372;28;20238;-77
2023/07/27 00:36:07;;;;;;;17.65;4.95;;;;;;;14.79;100.00;100312.38;4918522;28;20282;-77
2023/07/27 00:38:34;;;;;;;6.97;2.13;;;;;;;14.77;100.00;100309.72;4922751;28;20310;-77
2023/07/27 00:41:00;;;;;;;15.85;4.50;;;;;;;14.70;100.00;100306.25;4915928;28;20369;-76
2023/07/27 00:43:27;;;;;;;8.65;2.50;;;;;;;14.75;100.00;100316.84;4923998;28;20237;-76
2023/07/27 00:45:55;;;;;;;12.77;3.63;;;;;;;14.68;100.00;100316.03;4912291;28;20329;-76
2023/07/27 00:48:22;;;;;;;8.68;2.60;;;;;;;14.70;100.00;100313.34;4921534;28;20230;-76
2023/07/27 00:50:50;;;;;;;9.50;2.58;;;;;;;14.69;100.00;100312.47;4902956;28;20277;-75
2023/07/27 00:53:17;;;;;;;8.85;2.47;;;;;;;14.66;100.00;100317.81;4913765;28;20735;-77
2023/07/27 00:55:45;;;;;;;12.73;3.47;;;;;;;14.65;100.00;100320.47;4913149;28;20241;-76
2023/07/27 00:58:12;;;;;;;10.93;2.95;;;;;;;14.63;100.00;100316.97;4908918;28;20337;-76
2023/07/27 01:00:42;;;;;;;14.80;3.97;;;;;;;14.60;100.00;100322.31;4918939;28;20238;-78
2023/07/27 01:03:10;;;;;;;23.05;6.38;;;;;;;14.57;100.00;100317.91;4906949;29;20222;-76
2023/07/27 01:05:37;;;;;;;8.95;2.55;;;;;;;14.56;100.00;100315.25;4913104;28;20234;-76
2023/07/27 01:08:05;;;;;;;23.02;6.63;;;;;;;14.54;100.00;100311.72;4904042;28;20310;-76
2023/07/27 01:11:00;;;;;;;7.50;2.10;;;;;;;14.55;100.00;100305.50;4920785;28;20285;-77
2023/07/27 01:13:27;;;;;;;9.88;2.90;;;;;;;14.55;100.00;100309.03;4912205;29;20576;-76
2023/07/27 01:16:00;;;;;;;9.75;2.75;;;;;;;14.60;100.00;100309.88;4911921;28;20302;-77
2023/07/27 01:18:40;;;;;;;8.70;2.50;;;;;;;14.64;100.00;100313.41;4913358;28;20254;-76
2023/07/27 01:21:15;;;;;;;16.13;4.53;;;;;;;14.61;100.00;100309.00;4910945;28;20309;-77
2023/07/27 01:23:53;;;;;;;10.02;2.90;;;;;;;14.61;100.00;100305.44;4919389;28;20241;-77
2023/07/27 01:26:57;;;;;;;7.93;2.15;;;;;;;14.69;100.00;100304.47;4913290;28;20302;-77
2023/07/27 01:29:30;;;;;;;28.52;8.07;;;;;;;14.75;100.00;100303.53;4906466;28;20280;-76
2023/07/27 01:31:57;;;;;;;17.38;5.03;;;;;;;14.74;100.00;100301.75;4909127;28;20614;-77
2023/07/27 01:34:29;;;;;;;8.80;2.63;;;;;;;14.80;100.00;100304.38;4919612;28;20630;-78
2023/07/27 01:37:04;;;;;;;14.30;4.07;;;;;;;14.86;100.00;100306.09;4917283;28;20237;-77
2023/07/27 01:39:34;;;;;;;7.68;2.30;;;;;;;14.89;100.00;100295.41;4921442;28;20606;-79
2023/07/27 01:42:02;;;;;;;14.00;3.70;;;;;;;14.84;100.00;100290.13;4918194;28;20227;-78
2023/07/27 01:44:29;;;;;;;11.38;3.22;;;;;;;14.89;100.00;100296.28;4942200;28;20242;-79
2023/07/27 01:46:57;;;;;;;13.75;3.72;;;;;;;14.88;100.00;100297.19;4918324;28;20226;-78
2023/07/27 01:49:24;;;;;;;8.82;2.50;;;;;;;14.92;100.00;100298.03;4914156;28;20231;-77
2023/07/27 01:51:51;;;;;;;11.93;3.35;;;;;;;14.91;100.00;100294.47;4930746;28;20230;-76
2023/07/27 01:54:19;;;;;;;11.02;3.20;;;;;;;14.96;100.00;100294.44;4918494;28;20226;-77
2023/07/27 01:56:46;;;;;;;8.82;2.67;;;;;;;14.94;100.00;100283.81;4931876;28;20696;-77
2023/07/27 01:59:13;;;;;;;11.38;3.20;;;;;;;14.95;100.00;100288.22;4911425;28;20234;-78
2023/07/27 02:01:42;;;;;;;9.57;2.65;;;;;;;14.93;100.00;100286.47;4918718;28;20230;-77
2023/07/27 02:04:10;;;;;;;21.50;5.57;;;;;;;14.92;100.00;100288.25;4914967;28;20223;-77
2023/07/27 02:06:37;;;;;;;11.43;3.08;;;;;;;14.91;100.00;100278.50;4934594;28;20226;-77
2023/07/27 02:09:03;;;;;;;16.77;4.40;;;;;;;14.92;100.00;100279.38;4914458;28;20223;-77
2023/07/27 02:11:30;;;;;;;9.05;3.05;;;;;;;14.95;100.00;100284.69;4917759;28;20305;-77
2023/07/27 02:14:12;;;;;;;16.50;4.38;;;;;;;14.95;100.00;100285.56;4913703;28;20230;-77
2023/07/27 02:16:44;;;;;;;9.98;3.00;;;;;;;14.97;100.00;100282.88;4919430;28;20635;-78
2023/07/27 02:19:16;;;;;;;8.38;2.47;;;;;;;14.95;100.00;100269.59;4910419;28;20281;-77
2023/07/27 02:21:44;;;;;;;13.02;3.75;;;;;;;14.91;100.00;100262.53;4913954;28;20245;-77
2023/07/27 02:24:11;;;;;;;9.77;2.70;;;;;;;14.90;100.00;100263.44;4932270;28;20265;-78
2023/07/27 02:26:38;;;;;;;8.88;2.53;;;;;;;14.91;100.00;100264.31;4920991;29;20222;-78
2023/07/27 02:29:04;;;;;;;16.85;4.75;;;;;;;14.88;100.00;100259.91;4917517;28;20229;-76
2023/07/27 02:31:31;;;;;;;11.38;3.40;;;;;;;14.90;100.00;100268.75;4912870;28;20314;-75
2023/07/27 02:33:58;;;;;;;15.32;4.47;;;;;;;14.90;100.00;100255.44;4906373;28;20228;-75
2023/07/27 02:36:25;;;;;;;6.70;2.03;;;;;;;14.83;100.00;100256.41;4915630;28;20739;-75
2023/07/27 02:38:51;;;;;;;8.98;2.65;;;;;;;14.80;100.00;100258.22;4911708;28;20235;-75
2023/07/27 02:41:18;;;;;;;10.85;3.30;;;;;;;14.78;100.00;100252.03;4913326;28;20243;-78
2023/07/27 02:43:45;;;;;;;12.98;3.65;;;;;;;14.76;100.00;100256.50;4921495;28;20234;-78
2023/07/27 02:46:12;;;;;;;12.38;3.40;;;;;;;14.71;100.00;100246.78;4914464;28;20342;-78
2023/07/27 02:48:39;;;;;;;9.10;2.60;;;;;;;14.71;100.00;100243.25;4916206;28;20241;-77
2023/07/27 02:51:05;;;;;;;25.88;6.25;;;;;;;14.75;100.00;100252.94;4913511;28;20237;-78
2023/07/27 02:53:32;;;;;;;9.40;2.67;;;;;;;14.75;100.00;100247.63;4921147;28;20253;-77
2023/07/27 02:56:00;;;;;;;18.00;4.82;;;;;;;14.80;100.00;100252.91;4918330;28;20234;-77
2023/07/27 02:58:27;;;;;;;8.10;2.30;;;;;;;14.86;100.00;100255.50;4925589;28;20238;-77
2023/07/27 03:00:58;;;;;;;16.40;4.38;;;;;;;14.84;100.00;100242.19;4919247;28;20226;-77
2023/07/27 03:03:25;;;;;;;8.35;2.38;;;;;;;14.88;100.00;100249.25;4924929;28;20558;-77
2023/07/27 03:05:59;;;;;;;12.38;3.38;;;;;;;14.85;100.00;100245.75;4919223;28;20241;-77
2023/07/27 03:08:26;;;;;;;11.73;3.25;;;;;;;14.85;100.00;100259.94;4921551;28;20238;-77
2023/07/27 03:10:53;;;;;;;6.28;1.83;;;;;;;14.81;100.00;100250.22;4920127;28;20238;-77
2023/07/27 03:13:20;;;;;;;9.68;2.78;;;;;;;14.86;100.00;100261.69;4924324;28;20234;-77
2023/07/27 03:15:47;;;;;;;9.88;2.58;;;;;;;14.81;100.00;100260.88;4926182;28;20242;-76
2023/07/27 03:18:14;;;;;;;10.32;2.83;;;;;;;14.88;100.00;100265.22;4915884;28;20266;-76
2023/07/27 03:20:41;;;;;;;7.82;2.20;;;;;;;14.88;100.00;100267.00;4924733;28;20229;-77
2023/07/27 03:23:09;;;;;;;18.40;5.00;;;;;;;14.90;100.00;100265.22;4921519;28;20239;-77
2023/07/27 03:25:36;;;;;;;8.90;2.50;;;;;;;14.95;100.00;100261.59;4920339;28;20239;-77
2023/07/27 03:28:05;;;;;;;17.13;4.82;;;;;;;14.94;100.00;100265.16;4921077;28;20376;-77
2023/07/27 03:30:36;;;;;;;8.70;2.47;;;;;;;14.97;100.00;100272.22;4926008;28;20247;-76
2023/07/27 03:33:03;;;;;;;16.33;4.35;;;;;;;15.01;100.00;100269.50;4915143;28;20237;-77
2023/07/27 03:35:30;;;;;;;9.68;2.63;;;;;;;15.00;100.00;100267.75;4919622;28;20242;-77
2023/07/27 03:37:57;;;;;;;15.05;4.07;;;;;;;15.03;100.00;100272.16;4913089;28;20359;-77
2023/07/27 03:40:24;;;;;;;8.88;2.45;;;;;;;15.06;100.00;100269.47;4920588;28;20242;-77
2023/07/27 03:42:50;;;;;;;9.57;2.60;;;;;;;15.05;100.00;100263.25;4929308;28;20233;-77
2023/07/27 03:45:17;;;;;;;10.40;2.80;;;;;;;15.14;100.00;100269.38;4915197;28;20238;-77
2023/07/27 03:47:44;;;;;;;8.80;2.33;;;;;;;15.17;100.00;100272.00;4931767;28;20239;-77
2023/07/27 03:50:13;;;;;;;7.88;2.10;;;;;;;15.15;100.00;100257.81;4916053;28;20238;-77
2023/07/27 03:52:40;;;;;;;9.85;2.70;;;;;;;15.15;100.00;100268.47;4920650;28;20238;-78
2023/07/27 03:55:07;;;;;;;16.35;4.53;;;;;;;15.19;100.00;100262.19;4920849;28;20290;-76
2023/07/27 03:57:34;;;;;;;11.65;3.25;;;;;;;15.18;100.00;100255.13;4924598;28;20227;-77
2023/07/27 04:00:01;;;;;;;14.98;4.00;;;;;;;15.23;100.00;100271.91;4918220;28;20231;-77
2023/07/27 04:02:28;;;;;;;11.43;3.10;;;;;;;15.20;100.00;100264.84;4921665;28;20222;-77
2023/07/27 04:04:55;;;;;;;13.77;3.70;;;;;;;15.22;100.00;100255.06;4907208;28;20261;-77
2023/07/27 04:07:22;;;;;;;7.90;2.28;;;;;;;15.28;100.00;100262.09;4920135;28;20230;-77
2023/07/27 04:09:49;;;;;;;9.75;2.70;;;;;;;15.27;100.00;100255.00;4915815;28;20310;-77
2023/07/27 04:12:15;;;;;;;8.80;2.45;;;;;;;15.30;100.00;100260.28;4911044;28;20660;-77
2023/07/27 04:14:42;;;;;;;8.60;2.40;;;;;;;15.28;100.00;100251.44;4925213;28;20233;-77
2023/07/27 04:17:09;;;;;;;20.40;5.22;;;;;;;15.31;100.00;100260.25;4905971;28;20235;-77
2023/07/27 04:19:36;;;;;;;7.47;2.10;;;;;;;15.31;100.00;100262.03;4926630;28;20238;-78
2023/07/27 04:22:03;;;;;;;16.80;4.40;;;;;;;15.28;100.00;100254.09;4913319;28;20601;-77
2023/07/27 04:24:29;;;;;;;10.18;2.65;;;;;;;15.26;100.00;100250.56;4924451;28;20233;-77
2023/07/27 04:26:56;;;;;;;14.00;3.78;;;;;;;15.26;100.00;100259.44;4918217;28;20222;-78
2023/07/27 04:29:23;;;;;;;10.45;2.90;;;;;;;15.30;100.00;100262.94;4918063;28;20249;-77
2023/07/27 04:31:50;;;;;;;8.07;2.30;;;;;;;15.29;100.00;100258.53;4919285;28;20238;-77
2023/07/27 04:34:16;;;;;;;11.07;3.08;;;;;;;15.29;100.00;100256.75;4919955;28;20246;-77
2023/07/27 04:36:43;;;;;;;8.50;2.33;;;;;;;15.34;100.00;100262.88;4922217;28;20230;-77
2023/07/27 04:39:10;;;;;;;19.70;5.15;;;;;;;15.36;100.00;100268.19;4917179;28;20240;-77
2023/07/27 04:41:36;;;;;;;9.20;2.60;;;;;;;15.40;100.00;100271.69;4920407;28;20235;-77
2023/07/27 04:44:03;;;;;;;24.20;6.18;;;;;;;15.41;100.00;100269.00;4920854;28;20225;-77
2023/07/27 04:46:30;;;;;;;8.13;2.60;;;;;;;15.47;100.00;100273.38;4924299;28;20266;-77
2023/07/27 04:48:57;;;;;;;20.23;5.38;;;;;;;15.46;100.00;100275.16;4910039;28;20707;-77
2023/07/27 04:51:24;;;;;;;10.35;2.83;;;;;;;15.44;100.00;100266.31;4920049;28;20238;-77
2023/07/27 04:53:51;;;;;;;10.15;2.78;;;;;;;15.49;100.00;100259.13;4920921;28;20222;-76
2023/07/27 04:56:17;;;;;;;7.63;2.13;;;;;;;15.51;100.00;100261.78;4919822;28;20250;-78
2023/07/27 04:58:44;;;;;;;10.95;2.97;;;;;;;15.56;100.00;100263.47;4926730;28;20319;-78
2023/07/27 05:01:11;;;;;;;9.02;2.40;;;;;;;15.60;100.00;100265.25;4917732;28;20295;-78
2023/07/27 05:03:38;;;;;;;11.68;3.03;;;;;;;15.60;100.00;100267.00;4917716;28;20254;-78
2023/07/27 05:06:04;;;;;;;18.20;4.97;;;;;;;15.61;100.00;100263.47;4914956;28;20231;-77
2023/07/27 05:08:31;;;;;;;7.35;2.17;;;;;;;15.69;100.00;100261.59;4925450;28;20227;-77
2023/07/27 05:10:58;;;;;;;20.35;5.20;;;;;;;15.74;100.00;100258.84;4912385;28;20252;-77
2023/07/27 05:13:24;;;;;;;9.23;2.58;;;;;;;15.80;100.00;100266.75;4915827;28;20234;-78
2023/07/27 05:15:51;;;;;;;12.70;3.45;;;;;;;15.81;100.00;100261.41;4916394;28;20230;-77
2023/07/27 05:18:18;;;;;;;8.10;2.42;;;;;;;15.87;100.00;100271.09;4921854;28;20296;-77
2023/07/27 05:20:45;;;;;;;7.25;2.15;;;;;;;15.86;100.00;100272.00;4937364;28;20234;-78
2023/07/27 05:23:12;;;;;;;11.48;3.20;;;;;;;15.85;100.00;100263.13;4912735;28;20250;-77
2023/07/27 05:25:38;;;;;;;8.82;2.42;;;;;;;15.82;100.00;100259.63;4925428;28;20238;-77
2023/07/27 05:28:05;;;;;;;24.80;6.35;;;;;;;15.86;100.00;100280.00;4914006;28;20245;-78
2023/07/27 05:30:32;;;;;;;9.30;2.65;;;;;;;15.83;100.00;100266.72;4926234;28;20235;-78
2023/07/27 05:32:59;;;;;;;24.48;6.07;;;;;;;15.82;100.00;100272.94;4925745;28;20222;-77
2023/07/27 05:35:25;;;;;;;10.60;2.80;;;;;;;15.82;100.00;100280.94;4929366;28;20761;-78
2023/07/27 05:37:52;;;;;;;8.65;2.40;;;;;;;15.79;100.00;100276.53;4925570;28;20312;-78
2023/07/27 05:40:19;;;;;;;9.35;2.55;;;;;;;15.78;100.00;100277.44;4932119;28;20611;-78
2023/07/27 05:42:46;;;;;;;9.27;2.47;;;;;;;15.77;100.00;100270.34;4924582;28;20234;-78
2023/07/27 05:45:13;;;;;;;10.32;2.72;;;;;;;15.78;100.00;100260.56;4919207;28;20239;-79
2023/07/27 05:47:39;;;;;;;13.07;3.60;;;;;;;15.79;100.00;100255.22;4922011;28;20256;-78
2023/07/27 05:50:07;;;;;;;22.10;5.18;;;;;;;15.80;100.00;100251.63;4924649;28;20233;-79
2023/07/27 05:52:34;;;;;;;8.52;2.40;;;;;;;15.77;100.00;100254.34;4932952;28;20230;-79
2023/07/27 05:55:00;;;;;;;23.25;5.45;;;;;;;15.79;100.00;100246.31;4921771;28;20235;-79
2023/07/27 05:57:27;;;;;;;7.07;2.00;;;;;;;15.81;100.00;100244.53;4923107;28;20223;-79
2023/07/27 05:59:54;;;;;;;14.13;3.67;;;;;;;15.82;100.00;100239.16;4924748;28;20245;-79
2023/07/27 06:02:33;;;;;;;9.65;2.53;;;;;;;15.84;100.00;100239.13;4920225;28;20235;-78
2023/07/27 06:04:59;;;;;;;17.95;4.43;;;;;;;15.89;100.00;100245.28;4923124;28;20257;-78
2023/07/27 06:07:26;;;;;;;8.35;2.33;;;;;;;15.89;100.00;100239.94;4924323;28;20355;-77
2023/07/27 06:09:53;;;;;;;17.50;4.05;;;;;;;15.91;100.00;100239.03;4922534;28;20234;-78
2023/07/27 06:12:20;;;;;;;7.88;2.30;;;;;;;15.97;100.00;100249.59;4925005;28;20233;-78
2023/07/27 06:14:47;;;;;;;10.40;2.95;;;;;;;16.02;100.00;100236.19;4926757;28;20309;-80
2023/07/27 06:17:14;;;;;;;12.30;3.33;;;;;;;16.05;100.00;100245.91;4911490;28;20240;-78
2023/07/27 06:19:40;;;;;;;8.38;2.40;;;;;;;16.06;100.00;100243.22;4925762;28;20235;-79
2023/07/27 06:22:07;;;;;;;32.97;7.00;;;;;;;16.06;100.00;100235.22;4917763;28;20229;-79
2023/07/27 06:24:34;;;;;;;7.75;2.20;;;;;;;16.11;100.00;100251.16;4924519;28;20303;-79
2023/07/27 06:27:01;;;;;;;30.17;6.85;;;;;;;16.10;100.00;100255.59;4926041;28;20226;-79
2023/07/27 06:29:28;;;;;;;7.72;2.15;;;;;;;16.06;100.00;100247.69;4938964;28;20227;-78
2023/07/27 06:31:54;;;;;;;11.65;3.13;;;;;;;16.06;100.00;100250.34;4915397;28;20318;-78
2023/07/27 06:34:21;;;;;;;8.63;2.40;;;;;;;16.09;100.00;100252.97;4926146;28;20242;-79
2023/07/27 06:36:48;;;;;;;9.55;2.63;;;;;;;16.08;100.00;100262.75;4924331;28;20235;-79
2023/07/27 06:39:15;;;;;;;7.38;2.05;;;;;;;16.08;100.00;100262.75;4912683;28;20249;-79
2023/07/27 06:41:41;;;;;;;9.60;2.60;;;;;;;16.04;100.00;100254.81;4925902;28;20275;-78
2023/07/27 06:44:08;;;;;;;34.20;7.63;;;;;;;16.08;100.00;100248.53;4925014;28;20235;-78
2023/07/27 06:46:36;;;;;;;9.52;2.50;;;;;;;16.11;100.00;100248.47;4927945;28;20229;-80
2023/07/27 06:49:03;;;;;;;21.45;5.93;;;;;;;16.11;100.00;100238.69;4919766;28;20226;-79
2023/07/27 06:51:30;;;;;;;6.88;1.92;;;;;;;16.16;100.00;100242.16;4907299;29;20227;-79
2023/07/27 06:53:57;;;;;;;16.08;4.10;;;;;;;16.16;100.00;100246.63;4922000;28;20234;-79
2023/07/27 06:56:23;;;;;;;10.30;2.88;;;;;;;16.16;100.00;100249.28;4927727;28;20226;-79
2023/07/27 06:58:50;;;;;;;8.70;2.40;;;;;;;16.17;100.00;100243.03;4926034;28;20230;-80
2023/07/27 07:01:17;;;;;;;10.98;3.08;;;;;;;16.15;100.00;100244.84;4921217;28;20241;-79
2023/07/27 07:03:44;;;;;;;10.30;2.80;;;;;;;16.13;100.00;100244.88;4923270;28;20234;-79
2023/07/27 07:06:11;;;;;;;10.15;2.63;;;;;;;16.12;100.00;100253.78;4917786;28;20301;-78
2023/07/27 07:08:38;;;;;;;10.10;2.63;;;;;;;16.13;100.00;100254.69;4917091;28;20230;-78
2023/07/27 07:11:05;;;;;;;17.77;4.65;;;;;;;16.14;100.00;100259.97;4912470;28;20266;-77
2023/07/27 07:13:32;;;;;;;11.05;3.08;;;;;;;16.14;100.00;100251.09;4921199;28;20310;-78
2023/07/27 07:15:59;;;;;;;22.67;5.68;;;;;;;16.12;100.00;100244.91;4921117;28;20294;-78
2023/07/27 07:18:26;;;;;;;12.02;3.28;;;;;;;16.13;100.00;100239.56;4928098;28;20236;-80
2023/07/27 07:20:52;;;;;;;9.23;2.63;;;;;;;16.14;100.00;100240.44;4925880;28;20258;-79
2023/07/27 07:23:19;;;;;;;10.23;2.83;;;;;;;16.21;100.00;100237.63;4938257;28;20231;-78
2023/07/27 07:25:47;;;;;;;7.85;2.15;;;;;;;16.16;100.00;100238.63;4926627;28;20294;-78
2023/07/27 07:28:14;;;;;;;12.00;2.78;;;;;;;16.12;100.00;100229.78;4920619;28;20265;-78
2023/07/27 07:30:41;;;;;;;9.07;2.50;;;;;;;16.11;100.00;100229.81;4930091;28;20237;-79
2023/07/27 07:33:08;;;;;;;48.13;8.93;;;;;;;16.04;100.00;100218.34;4914305;28;20233;-79
2023/07/27 07:35:38;;;;;;;10.90;2.85;;;;;;;16.13;100.00;100220.00;4924803;28;20230;-80
2023/07/27 07:38:06;;;;;;;51.25;9.40;;;;;;;16.17;100.00;100214.56;4922754;28;20242;-81
2023/07/27 07:40:33;;;;;;;10.45;2.80;;;;;;;16.24;100.00;100210.91;4942917;28;20298;-78
2023/07/27 07:43:00;;;;;;;46.00;9.00;;;;;;;16.16;100.00;100207.47;4917022;28;20287;-80
2023/07/27 07:45:27;;;;;;;7.40;2.22;;;;;;;16.25;100.00;100199.31;4927621;28;20247;-80
2023/07/27 07:47:54;;;;;;;24.30;5.32;;;;;;;16.24;100.00;100188.66;4928772;28;20238;-79
2023/07/27 07:50:21;;;;;;;15.57;4.13;;;;;;;16.26;100.00;100198.41;4918485;29;20947;-79
2023/07/27 07:52:48;;;;;;;9.07;2.53;;;;;;;16.20;100.00;100185.19;4927680;28;20226;-80
2023/07/27 07:55:17;;;;;;;8.73;2.35;;;;;;;16.18;100.00;100194.13;4926085;28;20258;-79
2023/07/27 07:57:44;;;;;;;12.27;3.30;;;;;;;16.18;100.00;100187.00;4919789;28;20234;-80
2023/07/27 08:00:11;;;;;;;12.38;3.05;;;;;;;16.21;100.00;100192.28;4925915;28;20418;-79
2023/07/27 08:02:41;;;;;;;12.32;3.35;;;;;;;16.28;100.00;100198.38;4925329;28;20290;-79
2023/07/27 08:05:08;;;;;;;49.53;9.57;;;;;;;16.31;100.00;100201.00;4920156;28;20234;-78
2023/07/27 08:07:35;;;;;;;18.52;5.15;;;;;;;16.37;100.00;100214.22;4940011;28;20230;-81
2023/07/27 08:10:04;;;;;;;49.95;10.07;;;;;;;16.30;100.00;100205.44;4918682;28;20229;-80
2023/07/27 08:12:31;;;;;;;134.02;26.13;;;;;;;16.34;100.00;100214.28;5493571;23;20221;-85
2023/07/27 08:14:58;;;;;;;42.72;8.70;;;;;;;16.27;100.00;100221.50;4927110;28;20268;-81
2023/07/27 08:17:29;;;;;;;9.95;3.05;;;;;;;16.19;100.00;100219.88;4929605;28;20238;-81
2023/07/27 08:19:59;;;;;;;49.95;9.80;;;;;;;16.13;100.00;100228.88;4927003;28;20305;-82
2023/07/27 08:22:26;;;;;;;10.43;3.03;;;;;;;16.16;100.00;100233.28;4928296;28;20242;-83
2023/07/27 08:24:53;;;;;;;8.40;2.40;;;;;;;16.04;100.00;100217.47;4912780;28;20242;-80
2023/07/27 08:27:35;;;;;;;10.73;3.22;;;;;;;16.00;100.00;100192.66;4934563;28;20217;-78
2023/07/27 08:30:03;;;;;;;9.68;2.72;;;;;;;15.94;100.00;100190.97;4947445;28;20276;-76
2023/07/27 08:32:29;;;;;;;7.18;2.35;;;;;;;15.93;100.00;100183.00;4931316;28;20226;-77
2023/07/27 08:34:56;;;;;;;13.38;4.05;;;;;;;15.89;100.00;100175.94;4934246;28;20226;-76
2023/07/27 08:37:24;;;;;;;7.38;2.60;;;;;;;15.81;100.00;100173.41;4938387;28;20230;-76
2023/07/27 08:39:51;;;;;;;6.10;2.00;;;;;;;15.72;100.00;100162.88;4924523;28;20238;-78
2023/07/27 08:42:18;;;;;;;6.60;2.17;;;;;;;15.76;100.00;100159.28;4913891;28;20301;-74
2023/07/27 08:44:46;;;;;;;6.55;2.17;;;;;;;15.86;100.00;100168.00;4938671;28;20246;-72
2023/07/27 08:47:13;;;;;;;8.30;2.83;;;;;;;15.85;100.00;100168.91;4914871;29;20245;-75
2023/07/27 08:49:40;;;;;;;7.95;2.58;;;;;;;15.89;100.00;100175.94;4918594;29;20227;-75
2023/07/27 08:52:07;;;;;;;16.00;5.00;;;;;;;16.00;100.00;100193.53;4916133;28;20242;-75
2023/07/27 08:54:33;;;;;;;7.38;2.45;;;;;;;15.98;100.00;100186.47;4920454;29;20234;-74
2023/07/27 08:57:03;;;;;;;10.77;3.33;;;;;;;16.04;100.00;100181.03;4917564;28;20257;-77
2023/07/27 08:59:30;;;;;;;7.05;2.47;;;;;;;16.17;100.00;100203.91;4920493;28;20242;-75
2023/07/27 09:01:57;;;;;;;14.48;4.25;;;;;;;16.35;100.00;100210.72;4915122;28;20626;-76
2023/07/27 09:04:24;;;;;;;7.63;2.55;;;;;;;16.37;100.00;100205.34;4912091;28;20286;-75
2023/07/27 09:06:51;;;;;;;8.93;3.05;;;;;;;16.27;100.00;100209.97;4906161;28;20242;-76
2023/07/27 09:09:21;;;;;;;9.73;3.38;;;;;;;16.26;100.00;100208.19;4901123;28;20241;-75
2023/07/27 09:11:48;;;;;;;12.18;3.97;;;;;;;16.22;100.00;100204.72;4910518;28;20235;-76
2023/07/27 09:14:18;;;;;;;6.80;2.35;;;;;;;16.37;100.00;100216.00;4910748;28;20272;-75
2023/07/27 09:16:46;;;;;;;8.45;2.75;;;;;;;16.36;100.00;100232.94;4916712;29;20254;-74
2023/07/27 09:19:16;;;;;;;9.05;2.97;;;;;;;16.39;100.00;100224.88;4915190;28;20238;-74
2023/07/27 09:21:45;;;;;;;6.70;2.25;;;;;;;16.44;100.00;100226.56;4922477;28;20245;-73
2023/07/27 09:24:12;;;;;;;8.45;2.50;;;;;;;16.44;100.00;100226.56;4919410;28;20250;-73
2023/07/27 09:26:50;;;;;;;6.07;2.13;;;;;;;16.36;100.00;100225.81;4922829;29;20230;-75
2023/07/27 09:29:20;;;;;;;5.95;2.05;;;;;;;16.37;100.00;100229.34;4913308;28;20234;-74
2023/07/27 09:31:52;;;;;;;8.00;2.53;;;;;;;16.28;100.00;100215.28;4921449;28;20249;-75
2023/07/27 09:34:20;;;;;;;7.07;2.50;;;;;;;16.33;100.00;100207.19;4916833;28;20230;-74
2023/07/27 09:36:47;;;;;;;8.93;2.90;;;;;;;16.37;100.00;100211.56;4905329;29;20234;-73
2023/07/27 09:39:15;;;;;;;12.82;3.00;;;;;;;16.35;100.00;100217.81;4907002;28;20226;-74
2023/07/27 09:41:44;;;;;;;9.10;2.92;;;;;;;16.32;100.00;100221.44;4914206;28;20258;-75
2023/07/27 09:44:15;;;;;;;14.90;3.65;;;;;;;16.45;100.00;100217.63;4895626;28;20230;-73
2023/07/27 09:46:42;;;;;;;9.00;2.78;;;;;;;16.51;100.00;100222.84;4908723;28;20218;-72
2023/07/27 09:49:15;;;;;;;16.92;4.82;;;;;;;16.53;100.00;100223.72;4913394;28;20241;-74
2023/07/27 09:51:43;;;;;;;6.93;2.15;;;;;;;16.65;100.00;100230.63;4919298;29;20253;-73
2023/07/27 09:54:13;;;;;;;51.72;9.23;;;;;;;16.64;100.00;100224.38;4909861;28;20237;-73
2023/07/27 09:56:40;;;;;;;7.45;2.40;;;;;;;16.71;100.00;100227.84;4919886;28;20238;-73
2023/07/27 09:59:07;;;;;;;13.15;4.07;;;;;;;16.63;100.00;100214.63;4917787;29;20309;-74
2023/07/27 10:01:34;;;;;;;9.30;2.83;;;;;;;16.74;100.00;100226.91;4918908;29;20238;-73
2023/07/27 10:04:01;;;;;;;17.23;4.40;;;;;;;16.68;100.00;100213.69;4912049;28;20322;-74
2023/07/27 10:06:29;;;;;;;7.10;2.20;;;;;;;16.79;100.00;100220.56;4923463;29;20234;-76
2023/07/27 10:08:56;;;;;;;15.48;4.40;;;;;;;16.78;100.00;100213.47;4913427;28;20298;-75
2023/07/27 10:11:50;;;;;;;8.40;2.78;;;;;;;16.82;100.00;100217.84;4923034;28;20235;-74
2023/07/27 10:14:18;;;;;;;7.18;2.30;;;;;;;16.82;100.00;100231.19;4920671;28;20248;-74
2023/07/27 10:17:07;;;;;;;6.05;1.95;;;;;;;16.84;100.00;100215.13;4922521;29;20322;-74
2023/07/27 10:19:41;;;;;;;9.85;3.25;;;;;;;16.86;100.00;100207.97;4921197;29;20224;-74
2023/07/27 10:22:11;;;;;;;20.05;5.95;;;;;;;16.93;100.00;100217.66;4923783;28;20738;-74
2023/07/27 10:24:51;;;;;;;8.15;2.72;;;;;;;17.02;100.00;100228.16;4916283;29;20365;-74
2023/07/27 10:27:19;;;;;;;6.13;2.13;;;;;;;17.05;100.00;100228.09;4912152;29;20735;-74
2023/07/27 10:29:54;;;;;;;8.00;2.85;;;;;;;17.06;100.00;100221.84;4916269;28;20242;-75
2023/07/27 10:32:21;;;;;;;6.90;2.70;;;;;;;17.08;100.00;100233.38;4909446;29;20245;-74
2023/07/27 10:34:51;;;;;;;9.90;3.33;;;;;;;17.04;100.00;100218.31;4918633;28;20234;-73
2023/07/27 10:37:18;;;;;;;8.10;2.75;;;;;;;17.07;100.00;100231.63;4906346;29;20313;-73
2023/07/27 10:39:46;;;;;;;5.47;1.95;;;;;;;17.15;100.00;100240.34;4916080;29;20237;-74
2023/07/27 10:42:20;;;;;;;8.02;2.60;;;;;;;17.25;100.00;100233.00;4911565;29;20264;-73
2023/07/27 10:44:51;;;;;;;7.85;2.67;;;;;;;17.31;100.00;100232.88;4919617;29;20238;-74
2023/07/27 10:47:21;;;;;;;10.60;3.33;;;;;;;17.36;100.00;100227.44;4914440;29;20257;-74
2023/07/27 10:49:50;;;;;;;6.88;2.17;;;;;;;17.39;100.00;100227.38;4918984;28;20234;-74
2023/07/27 10:52:28;;;;;;;8.57;2.90;;;;;;;17.48;100.00;100232.50;4911233;29;20317;-74
2023/07/27 10:54:59;;;;;;;11.77;3.35;;;;;;;17.54;100.00;100232.38;4915015;28;20226;-74
2023/07/27 10:57:28;;;;;;;12.20;4.15;;;;;;;17.54;100.00;100227.03;4915695;28;20235;-74
2023/07/27 10:59:54;;;;;;;11.63;3.78;;;;;;;17.54;100.00;100227.03;4908473;29;20234;-73
2023/07/27 11:02:22;;;;;;;7.22;2.35;;;;;;;17.54;100.00;100227.91;4917639;28;20230;-74
2023/07/27 11:04:58;;;;;;;8.27;2.78;;;;;;;17.55;100.00;100234.13;4920113;29;20231;-74
2023/07/27 11:07:29;;;;;;;8.68;2.65;;;;;;;17.54;100.00;100227.91;4927953;28;20237;-73
2023/07/27 11:09:57;;;;;;;8.45;2.63;;;;;;;17.54;100.00;100219.88;4914136;28;20226;-72
2023/07/27 11:12:24;;;;;;;7.72;2.50;;;;;;;17.55;100.00;100232.34;4914913;28;20241;-72
2023/07/27 11:14:52;;;;;;;6.03;2.00;;;;;;;17.61;100.00;100234.00;4920242;28;20239;-71
2023/07/27 11:17:19;;;;;;;5.82;1.90;;;;;;;17.59;100.00;100230.47;4924819;29;20238;-72
2023/07/27 11:19:47;;;;;;;10.60;3.40;;;;;;;17.52;100.00;100221.72;4936218;28;20253;-72